Time;durP1;ratioP1;P1;durP2;ratioP2;P2;SDS_P1;SDS_P2;PMS_P1;PMS_P2;Temp;Humidity;BMP_temperature;BMP_pressure;BME280_temperature;BME280_humidity;BME280_pressure;Samples;Min_cycle;Max_cycle;Signal;HPM_P1;HPM_P2
2022/04/21 00:00:32;;;;;;;15.47;13.93;;;6.50;99.90;;;;;;5076496;28;20208;-77
2022/04/21 00:02:59;;;;;;;15.50;13.93;;;6.50;99.90;;;;;;5076376;28;20628;-77
2022/04/21 00:05:28;;;;;;;16.30;14.40;;;6.50;99.90;;;;;;5076277;28;20243;-77
2022/04/21 00:07:54;;;;;;;16.13;14.37;;;6.50;99.90;;;;;;5076503;28;20207;-77
2022/04/21 00:10:22;;;;;;;16.67;14.67;;;6.50;99.90;;;;;;5076455;28;20278;-76
2022/04/21 00:12:49;;;;;;;16.67;14.87;;;6.40;99.90;;;;;;5076343;28;20607;-76
2022/04/21 00:15:16;;;;;;;17.63;15.57;;;6.40;99.90;;;;;;5076202;28;20204;-77
2022/04/21 00:17:43;;;;;;;16.57;14.97;;;6.30;99.90;;;;;;5076243;28;20547;-76
2022/04/21 00:20:11;;;;;;;16.57;14.77;;;6.40;99.90;;;;;;5076009;28;20259;-76
2022/04/21 00:25:24;;;;;;;19.77;15.07;;;6.40;99.90;;;;;;5076106;28;20219;-76
2022/04/21 00:27:51;;;;;;;16.17;14.47;;;6.40;99.90;;;;;;5076070;28;20197;-77
2022/04/21 00:30:18;;;;;;;17.17;15.37;;;6.30;99.90;;;;;;5075817;28;20610;-76
2022/04/21 00:32:46;;;;;;;18.63;14.80;;;6.20;99.90;;;;;;5075300;28;20196;-76
2022/04/21 00:35:14;;;;;;;16.73;14.93;;;6.20;99.90;;;;;;5076023;28;20204;-76
2022/04/21 00:37:50;;;;;;;16.43;14.73;;;6.20;99.90;;;;;;5075790;28;20201;-77
2022/04/21 00:40:19;;;;;;;16.97;15.13;;;6.10;99.90;;;;;;5075817;28;20253;-76
2022/04/21 00:42:46;;;;;;;16.60;14.80;;;6.20;99.90;;;;;;5075540;28;20258;-78
2022/04/21 00:45:13;;;;;;;19.10;14.67;;;6.20;99.90;;;;;;5075438;28;20197;-78
2022/04/21 00:47:43;;;;;;;17.83;15.80;;;6.20;99.90;;;;;;5075677;28;20266;-77
2022/04/21 00:50:13;;;;;;;18.43;15.13;;;6.20;99.90;;;;;;5075698;28;20194;-78
2022/04/21 00:52:40;;;;;;;16.90;15.20;;;6.30;99.90;;;;;;5075563;28;20197;-75
2022/04/21 00:55:09;;;;;;;19.27;14.97;;;6.30;99.90;;;;;;5075640;28;20197;-76
2022/04/21 00:57:38;;;;;;;18.37;16.47;;;6.20;99.90;;;;;;5076258;28;20197;-76
2022/04/21 01:00:07;;;;;;;18.47;16.20;;;6.20;99.90;;;;;;5076831;28;20247;-76
2022/04/21 01:02:49;;;;;;;19.20;17.10;;;6.20;99.90;;;;;;5076156;28;20204;-77
2022/04/21 01:05:17;;;;;;;18.33;16.43;;;6.20;99.90;;;;;;5076545;28;20209;-76
2022/04/21 01:07:44;;;;;;;17.87;16.07;;;6.30;99.90;;;;;;5076032;28;20202;-77
2022/04/21 01:10:12;;;;;;;17.97;15.93;;;6.20;99.90;;;;;;5076407;28;20203;-76
2022/04/21 01:12:40;;;;;;;18.20;16.27;;;6.30;99.90;;;;;;5076083;28;20209;-76
2022/04/21 01:15:07;;;;;;;18.10;16.20;;;6.30;99.90;;;;;;5075224;28;20242;-76
2022/04/21 01:17:35;;;;;;;17.70;15.80;;;6.30;99.90;;;;;;5075131;28;20201;-77
2022/04/21 01:20:03;;;;;;;19.90;16.20;;;6.30;99.90;;;;;;5075176;28;20223;-78
2022/04/21 01:22:32;;;;;;;19.93;16.23;;;6.30;99.90;;;;;;5074768;28;20287;-77
2022/04/21 01:24:59;;;;;;;19.07;16.83;;;6.30;99.90;;;;;;5074745;28;20253;-77
2022/04/21 01:27:31;;;;;;;22.30;17.13;;;6.30;99.90;;;;;;5075072;28;20254;-77
2022/04/21 01:29:58;;;;;;;19.00;16.00;;;6.30;99.90;;;;;;5074906;28;20207;-78
2022/04/21 01:32:25;;;;;;;18.30;15.97;;;6.30;99.90;;;;;;5074811;28;20232;-78
2022/04/21 01:34:51;;;;;;;18.10;15.13;;;6.30;99.90;;;;;;5074686;28;20201;-76
2022/04/21 01:42:49;;;;;;;15.27;13.77;;;6.20;99.90;;;;;;5074541;28;20288;-76
2022/04/21 01:45:16;;;;;;;16.57;14.87;;;6.20;99.90;;;;;;5074532;28;20196;-78
2022/04/21 01:47:43;;;;;;;15.47;13.87;;;6.20;99.90;;;;;;5074223;28;20243;-77
2022/04/21 01:50:10;;;;;;;16.20;14.37;;;6.10;99.90;;;;;;5074591;28;20200;-78
2022/04/21 01:52:37;;;;;;;15.60;14.00;;;6.10;99.90;;;;;;5074338;28;20244;-78
2022/04/21 01:55:07;;;;;;;14.63;13.03;;;6.00;99.90;;;;;;5074267;28;20653;-78
2022/04/21 01:57:33;;;;;;;16.10;14.40;;;6.00;99.90;;;;;;5074306;28;20201;-78
2022/04/21 02:00:00;;;;;;;15.47;13.93;;;6.00;99.90;;;;;;5074314;28;20193;-78
2022/04/21 02:02:27;;;;;;;16.23;13.67;;;6.10;99.90;;;;;;5074162;28;20595;-78
2022/04/21 02:04:54;;;;;;;14.30;12.80;;;6.10;99.90;;;;;;5074380;28;20197;-77
2022/04/21 02:07:21;;;;;;;14.97;13.47;;;6.20;99.90;;;;;;5074507;28;20197;-76
2022/04/21 02:09:47;;;;;;;15.43;13.83;;;6.30;99.90;;;;;;5073806;28;20713;-78
2022/04/21 02:12:15;;;;;;;15.20;13.60;;;6.20;99.90;;;;;;5074021;28;20221;-77
2022/04/21 02:14:42;;;;;;;14.90;13.30;;;6.30;99.90;;;;;;5072961;28;20292;-77
2022/04/21 02:17:09;;;;;;;14.30;12.87;;;6.30;99.90;;;;;;5074049;28;20197;-78
2022/04/21 02:19:36;;;;;;;16.10;13.17;;;6.40;99.90;;;;;;5074030;28;20251;-78
2022/04/21 02:22:03;;;;;;;14.73;13.23;;;6.20;99.90;;;;;;5073665;28;20233;-78
2022/04/21 02:24:29;;;;;;;14.67;13.27;;;6.30;99.90;;;;;;5073869;28;20569;-77
2022/04/21 02:26:56;;;;;;;14.00;12.53;;;6.20;99.90;;;;;;5073740;28;20201;-78
2022/04/21 02:29:24;;;;;;;15.33;13.20;;;6.20;99.90;;;;;;5073975;28;20266;-78
2022/04/21 02:31:51;;;;;;;14.13;12.20;;;6.20;99.90;;;;;;5080552;28;20224;-77
2022/04/21 02:34:17;;;;;;;14.50;12.90;;;6.10;99.90;;;;;;5081389;28;20197;-78
2022/04/21 02:36:44;;;;;;;14.87;13.27;;;6.10;99.90;;;;;;5075510;28;20197;-78
2022/04/21 02:39:11;;;;;;;14.73;13.13;;;6.00;99.90;;;;;;5073746;28;20276;-78
2022/04/21 02:41:37;;;;;;;13.97;12.47;;;5.90;99.90;;;;;;5073676;28;20254;-77
2022/04/21 02:44:05;;;;;;;15.53;13.93;;;5.90;99.90;;;;;;5073360;28;20223;-78
2022/04/21 02:46:34;;;;;;;15.53;13.03;;;5.80;99.90;;;;;;5073430;28;20205;-78
2022/04/21 02:49:02;;;;;;;16.07;13.77;;;5.70;99.90;;;;;;5073307;28;20667;-77
2022/04/21 02:51:30;;;;;;;15.43;12.93;;;5.60;99.90;;;;;;5073236;28;20225;-77
2022/04/21 02:59:26;;;;;;;15.20;13.60;;;5.50;99.90;;;;;;5073361;28;20200;-76
2022/04/21 03:01:54;;;;;;;16.40;13.60;;;5.30;99.90;;;;;;5073182;28;20675;-78
2022/04/21 03:04:21;;;;;;;16.43;14.57;;;5.30;99.90;;;;;;5073420;28;20660;-76
2022/04/21 03:06:48;;;;;;;16.17;14.27;;;5.30;99.90;;;;;;5073320;28;20200;-76
2022/04/21 03:09:15;;;;;;;17.23;14.17;;;5.30;99.90;;;;;;5073530;28;20197;-76
2022/04/21 03:11:42;;;;;;;17.17;14.13;;;5.20;99.90;;;;;;5073109;28;20224;-76
2022/04/21 03:14:08;;;;;;;15.90;14.30;;;5.10;99.90;;;;;;5073426;28;20240;-76
2022/04/21 03:16:35;;;;;;;17.67;15.40;;;5.00;99.90;;;;;;5073371;28;20237;-76
2022/04/21 03:19:03;;;;;;;16.17;14.47;;;5.10;99.90;;;;;;5073153;28;20208;-76
2022/04/21 03:24:19;;;;;;;17.50;15.60;;;5.00;99.90;;;;;;5073227;28;20304;-77
2022/04/21 03:26:46;;;;;;;17.53;14.83;;;4.90;99.90;;;;;;5073031;28;20199;-76
2022/04/21 03:29:15;;;;;;;16.70;14.80;;;4.90;99.90;;;;;;5073165;28;20656;-77
2022/04/21 03:31:43;;;;;;;17.73;15.77;;;4.90;99.90;;;;;;5073341;28;20223;-77
2022/04/21 03:34:13;;;;;;;17.67;15.67;;;4.90;99.90;;;;;;5073075;28;20654;-77
2022/04/21 03:36:42;;;;;;;22.30;16.73;;;4.90;99.90;;;;;;5073398;28;20225;-77
2022/04/21 03:39:09;;;;;;;17.63;15.47;;;4.80;99.90;;;;;;5073264;28;20203;-77
2022/04/21 03:41:36;;;;;;;19.43;16.50;;;4.80;99.90;;;;;;5073970;28;20283;-77
2022/04/21 03:44:04;;;;;;;17.83;15.40;;;4.80;99.90;;;;;;5075987;28;20204;-77
2022/04/21 03:46:31;;;;;;;17.67;15.87;;;4.80;99.90;;;;;;5075084;28;20196;-77
2022/04/21 03:48:58;;;;;;;18.47;16.43;;;4.70;99.90;;;;;;5074841;28;20203;-76
2022/04/21 03:51:27;;;;;;;19.23;16.60;;;4.70;99.90;;;;;;5075819;28;20223;-76
2022/04/21 03:53:54;;;;;;;17.83;16.00;;;4.60;99.90;;;;;;5075371;28;20249;-77
2022/04/21 03:56:21;;;;;;;21.23;16.37;;;4.70;99.90;;;;;;5075714;28;20204;-76
2022/04/21 03:58:48;;;;;;;19.20;17.07;;;4.60;99.90;;;;;;5076018;28;20215;-76
2022/04/21 04:01:15;;;;;;;18.67;16.33;;;4.50;99.90;;;;;;5076409;28;20206;-78
2022/04/21 04:03:42;;;;;;;20.10;17.23;;;4.50;99.90;;;;;;5078321;28;20529;-76
2022/04/21 04:10:51;;;;;;;20.20;16.73;;;4.60;99.90;;;;;;5077631;28;20206;-77
2022/04/21 04:11:41;;;;;;;18.50;15.73;;;4.50;99.90;;;;;;5077675;28;20289;-76
2022/04/21 04:14:08;;;;;;;19.53;16.73;;;4.50;99.90;;;;;;5077627;28;20697;-76
2022/04/21 04:16:36;;;;;;;19.77;17.17;;;4.40;99.90;;;;;;5077958;28;20532;-76
2022/04/21 04:19:05;;;;;;;21.07;17.67;;;4.40;99.90;;;;;;5079053;28;20200;-76
2022/04/21 04:21:32;;;;;;;19.57;17.47;;;4.20;99.90;;;;;;5081114;28;20202;-77
2022/04/21 04:24:00;;;;;;;20.30;17.50;;;4.10;99.90;;;;;;5083510;28;20288;-77
2022/04/21 04:26:26;;;;;;;21.13;17.13;;;4.00;99.90;;;;;;5083720;28;20193;-76
2022/04/21 04:28:53;;;;;;;21.57;16.77;;;4.00;99.90;;;;;;5083978;28;20649;-76
2022/04/21 04:31:20;;;;;;;20.63;17.50;;;4.00;99.90;;;;;;5083351;28;20203;-76
2022/04/21 04:33:46;;;;;;;27.23;18.50;;;4.20;99.90;;;;;;5083562;28;20202;-76
2022/04/21 04:36:16;;;;;;;18.73;16.80;;;4.20;99.90;;;;;;5082532;28;20201;-76
2022/04/21 04:38:43;;;;;;;22.70;17.97;;;4.40;99.90;;;;;;5086058;28;20226;-76
2022/04/21 04:43:55;;;;;;;18.93;16.97;;;4.60;99.90;;;;;;5088870;28;20676;-77
2022/04/21 04:46:37;;;;;;;19.10;16.20;;;4.80;99.90;;;;;;5085711;28;20252;-77
2022/04/21 04:49:06;;;;;;;17.80;15.10;;;4.90;99.90;;;;;;5084936;28;20349;-77
2022/04/21 04:51:33;;;;;;;19.57;16.00;;;5.00;99.90;;;;;;5082794;28;20227;-76
2022/04/21 04:54:05;;;;;;;20.30;15.03;;;5.00;99.90;;;;;;5083647;28;20199;-76
2022/04/21 04:56:33;;;;;;;18.60;15.80;;;5.10;99.90;;;;;;5083879;28;20223;-76
2022/04/21 04:59:00;;;;;;;16.33;14.57;;;5.30;99.90;;;;;;5076982;28;20204;-76
2022/04/21 05:01:30;;;;;;;16.20;14.50;;;5.40;99.90;;;;;;5076618;28;20201;-77
2022/04/21 05:04:05;;;;;;;17.17;13.80;;;5.50;99.90;;;;;;5076342;28;20568;-76
2022/04/21 05:06:35;;;;;;;16.30;14.17;;;5.50;99.90;;;;;;5075936;28;20230;-76
2022/04/21 05:09:02;;;;;;;16.03;14.17;;;5.60;99.90;;;;;;5075910;28;20648;-77
2022/04/21 05:11:28;;;;;;;20.00;15.00;;;5.50;99.90;;;;;;5075271;28;20197;-77
2022/04/21 05:13:56;;;;;;;15.90;14.20;;;5.60;99.90;;;;;;5075627;28;20198;-76
2022/04/21 05:16:23;;;;;;;19.00;15.33;;;5.70;99.90;;;;;;5076739;28;20209;-77
2022/04/21 05:18:50;;;;;;;17.00;15.03;;;5.70;99.90;;;;;;5077628;28;20222;-76
2022/04/21 05:21:18;;;;;;;16.30;14.50;;;5.70;99.90;;;;;;5075712;28;20254;-76
2022/04/21 05:23:47;;;;;;;20.30;14.83;;;5.70;99.90;;;;;;5075277;28;20240;-77
2022/04/21 05:26:14;;;;;;;19.47;14.47;;;5.70;99.90;;;;;;5075187;28;20665;-77
2022/04/21 05:28:41;;;;;;;16.43;14.30;;;5.60;99.90;;;;;;5074967;28;20204;-77
2022/04/21 05:31:09;;;;;;;15.10;13.50;;;5.60;99.90;;;;;;5075152;28;20220;-76
2022/04/21 05:33:37;;;;;;;15.63;13.90;;;5.40;99.90;;;;;;5075084;28;20200;-77
2022/04/21 05:36:05;;;;;;;17.20;14.73;;;5.30;99.90;;;;;;5074971;28;20196;-76
2022/04/21 05:38:33;;;;;;;16.27;14.57;;;5.10;99.90;;;;;;5075205;28;20250;-76
2022/04/21 05:41:00;;;;;;;18.37;14.93;;;5.20;99.90;;;;;;5075153;28;20247;-77
2022/04/21 05:43:31;;;;;;;17.13;15.40;;;5.30;99.90;;;;;;5076670;28;20240;-76
2022/04/21 05:45:58;;;;;;;20.30;16.03;;;5.50;99.90;;;;;;5077035;28;20193;-77
2022/04/21 05:48:27;;;;;;;17.77;14.77;;;5.70;99.90;;;;;;5075205;28;20200;-76
2022/04/21 05:50:54;;;;;;;19.33;14.30;;;5.90;99.90;;;;;;5074880;28;20205;-77
2022/04/21 05:53:22;;;;;;;16.80;15.00;;;6.10;99.90;;;;;;5074047;28;20205;-76
2022/04/21 05:55:50;;;;;;;15.90;14.20;;;6.40;99.90;;;;;;5074399;28;20205;-78
2022/04/21 05:58:17;;;;;;;15.27;13.77;;;6.60;99.90;;;;;;5074620;28;20201;-77
2022/04/21 06:00:44;;;;;;;15.13;13.43;;;6.80;99.90;;;;;;5074476;28;20205;-78
2022/04/21 06:03:11;;;;;;;16.10;13.07;;;7.00;99.90;;;;;;5074115;28;20225;-78
2022/04/21 06:05:39;;;;;;;15.20;13.57;;;7.20;99.90;;;;;;5073938;28;20212;-78
2022/04/21 06:08:07;;;;;;;14.27;12.77;;;7.30;99.90;;;;;;5073955;28;20194;-78
2022/04/21 06:10:34;;;;;;;13.20;11.80;;;7.40;99.90;;;;;;5073768;28;20229;-78
2022/04/21 06:13:02;;;;;;;13.43;12.13;;;7.60;99.90;;;;;;5074026;28;20359;-78
2022/04/21 06:15:30;;;;;;;14.07;11.57;;;7.70;99.90;;;;;;5073581;28;20675;-77
2022/04/21 06:17:57;;;;;;;12.93;11.03;;;7.90;99.90;;;;;;5073936;28;20250;-78
2022/04/21 06:20:23;;;;;;;13.33;11.40;;;8.10;99.90;;;;;;5073639;28;20223;-76
2022/04/21 06:22:51;;;;;;;12.00;10.80;;;8.30;99.90;;;;;;5073380;28;20295;-76
2022/04/21 06:25:18;;;;;;;12.37;10.53;;;8.40;99.90;;;;;;5073802;28;20669;-75
2022/04/21 06:27:45;;;;;;;12.37;11.10;;;8.50;99.90;;;;;;5073654;28;20201;-76
2022/04/21 06:30:12;;;;;;;13.87;10.70;;;8.70;99.90;;;;;;5073628;28;20201;-76
2022/04/21 06:32:38;;;;;;;14.57;11.93;;;8.90;99.90;;;;;;5073226;28;20231;-76
2022/04/21 06:35:06;;;;;;;14.77;10.43;;;9.10;99.90;;;;;;5073407;28;20201;-75
2022/04/21 06:37:35;;;;;;;11.53;10.33;;;9.30;99.90;;;;;;5073415;28;20288;-75
2022/04/21 06:40:03;;;;;;;11.80;10.60;;;9.40;99.90;;;;;;5073672;28;20201;-76
2022/04/21 06:42:30;;;;;;;11.60;10.40;;;9.50;99.90;;;;;;5073276;28;20220;-76
2022/04/21 06:50:24;;;;;;;11.60;10.40;;;9.70;99.90;;;;;;5073291;28;20216;-77
2022/04/21 06:52:51;;;;;;;15.40;10.70;;;9.80;99.90;;;;;;5073478;28;20256;-77
2022/04/21 06:55:19;;;;;;;11.60;10.33;;;10.00;99.90;;;;;;5073232;28;20197;-77
2022/04/21 06:57:46;;;;;;;11.97;10.77;;;9.90;99.90;;;;;;5073024;28;20259;-77
2022/04/21 07:00:13;;;;;;;10.93;9.80;;;10.00;99.90;;;;;;5072479;28;20201;-77
2022/04/21 07:02:41;;;;;;;12.27;11.00;;;10.20;99.90;;;;;;5073053;28;20691;-77
2022/04/21 07:05:10;;;;;;;12.17;10.97;;;10.30;99.90;;;;;;5073091;28;20201;-77
2022/04/21 07:07:36;;;;;;;14.97;10.60;;;10.30;99.90;;;;;;5073122;28;20250;-77
2022/04/21 07:10:04;;;;;;;12.10;10.90;;;10.50;99.90;;;;;;5072989;28;20197;-77
2022/04/21 07:12:33;;;;;;;12.43;10.30;;;10.60;99.90;;;;;;5072789;28;20556;-77
2022/04/21 07:15:00;;;;;;;10.90;9.80;;;10.90;99.90;;;;;;5072871;28;20204;-78
2022/04/21 07:17:27;;;;;;;12.00;10.27;;;10.90;99.90;;;;;;5072962;28;20247;-77
2022/04/21 07:19:54;;;;;;;11.33;10.13;;;11.00;99.90;;;;;;5073026;28;20545;-77
2022/04/21 07:22:21;;;;;;;11.83;10.73;;;11.20;99.90;;;;;;5072592;28;20274;-77
2022/04/21 07:24:47;;;;;;;14.50;11.13;;;11.50;99.90;;;;;;5072762;28;20193;-77
2022/04/21 07:27:14;;;;;;;11.53;10.33;;;11.60;99.90;;;;;;5072900;28;20204;-78
2022/04/21 07:29:42;;;;;;;11.83;10.73;;;11.50;99.90;;;;;;5073125;28;20197;-78
2022/04/21 07:32:10;;;;;;;11.57;10.47;;;11.80;99.90;;;;;;5073057;28;20201;-79
2022/04/21 07:34:37;;;;;;;11.20;10.13;;;11.80;99.90;;;;;;5072932;28;20648;-77
2022/04/21 07:37:04;;;;;;;11.13;10.03;;;11.70;99.90;;;;;;5072974;28;20201;-77
2022/04/21 07:39:31;;;;;;;13.87;11.47;;;11.90;99.90;;;;;;5072726;28;20225;-76
2022/04/21 07:41:58;;;;;;;13.23;10.20;;;12.00;99.90;;;;;;5072501;28;20235;-77
2022/04/21 07:44:26;;;;;;;13.10;10.23;;;12.20;99.90;;;;;;5072626;28;20345;-77
2022/04/21 07:46:55;;;;;;;12.93;10.33;;;12.20;99.90;;;;;;5072876;28;20556;-77
2022/04/21 07:54:50;;;;;;;12.40;9.90;;;12.60;99.90;;;;;;5072457;28;20204;-77
2022/04/21 07:57:17;;;;;;;12.77;10.60;;;12.50;99.90;;;;;;5072799;28;20201;-77
2022/04/21 07:59:44;;;;;;;11.93;10.30;;;12.70;99.90;;;;;;5072564;28;20201;-77
2022/04/21 08:02:13;;;;;;;11.20;10.10;;;12.90;99.90;;;;;;5072485;28;20576;-77
2022/04/21 08:04:40;;;;;;;13.23;10.10;;;13.20;99.90;;;;;;5072405;28;20236;-77
2022/04/21 08:07:06;;;;;;;14.77;10.67;;;13.30;99.90;;;;;;5072850;28;20199;-77
2022/04/21 08:09:33;;;;;;;15.67;10.00;;;13.50;99.90;;;;;;5072724;28;20247;-77
2022/04/21 08:12:00;;;;;;;11.67;9.70;;;13.60;99.90;;;;;;5072741;28;20201;-77
2022/04/21 08:14:28;;;;;;;12.30;9.27;;;14.10;99.90;;;;;;5076352;28;20258;-78
2022/04/21 08:16:54;;;;;;;13.30;10.50;;;14.30;99.90;;;;;;5076649;28;20197;-77
2022/04/21 08:19:22;;;;;;;12.93;9.50;;;14.30;99.80;;;;;;5076088;28;20197;-77
2022/04/21 08:21:49;;;;;;;11.30;10.23;;;14.20;98.90;;;;;;5076452;28;20197;-77
2022/04/21 08:32:37;;;;;;;10.87;9.40;;;14.60;94.10;;;;;;5077413;28;20330;-78
2022/04/21 08:35:05;;;;;;;10.63;8.87;;;14.60;93.40;;;;;;5076941;28;20203;-77
2022/04/21 08:37:34;;;;;;;10.13;9.23;;;15.00;92.30;;;;;;5077170;28;20193;-77
2022/04/21 08:40:01;;;;;;;13.57;10.13;;;15.10;92.30;;;;;;5075752;28;20197;-77
2022/04/21 08:42:31;;;;;;;11.02;8.57;;;15.40;91.40;;;;;;5075502;28;20205;-77
2022/04/21 08:44:58;;;;;;;9.45;8.55;;;15.90;86.80;;;;;;5075853;28;20263;-77
2022/04/21 08:47:28;;;;;;;10.73;8.90;;;15.90;83.80;;;;;;5075447;28;20192;-78
2022/04/21 08:49:57;;;;;;;15.40;9.80;;;15.60;81.40;;;;;;5075711;28;20220;-77
2022/04/21 08:52:26;;;;;;;10.73;9.63;;;15.30;81.70;;;;;;5075678;28;20205;-77
2022/04/21 08:54:54;;;;;;;12.30;10.32;;;15.00;84.30;;;;;;5075336;28;20534;-77
2022/04/21 08:57:21;;;;;;;10.90;9.80;;;14.50;86.70;;;;;;5075564;28;20201;-77
2022/04/21 08:59:48;;;;;;;10.37;9.27;;;14.50;88.20;;;;;;5075296;28;20205;-76
2022/04/21 09:02:15;;;;;;;10.13;9.13;;;14.50;89.20;;;;;;5075290;28;20648;-77
2022/04/21 09:04:42;;;;;;;11.90;9.77;;;14.50;90.20;;;;;;5075079;28;20267;-77
2022/04/21 09:07:15;;;;;;;12.53;9.23;;;14.50;89.60;;;;;;5075190;28;20197;-76
2022/04/21 09:10:01;;;;;;;13.07;8.85;;;14.80;89.20;;;;;;5075274;28;20254;-76
2022/04/21 09:12:27;;;;;;;9.97;8.00;;;15.30;84.50;;;;;;5075205;28;20254;-77
2022/04/21 09:14:54;;;;;;;9.43;8.48;;;15.30;79.70;;;;;;5074833;28;20200;-78
2022/04/21 09:17:21;;;;;;;9.20;8.02;;;15.70;78.40;;;;;;5074966;28;20672;-78
2022/04/21 09:19:56;;;;;;;8.25;7.45;;;15.80;74.60;;;;;;5074865;28;20197;-78
2022/04/21 09:22:23;;;;;;;10.00;8.30;;;16.20;71.70;;;;;;5074846;28;20229;-76
2022/04/21 09:24:53;;;;;;;8.07;7.32;;;16.10;70.30;;;;;;5074432;28;20262;-76
2022/04/21 09:27:20;;;;;;;16.25;8.65;;;16.10;70.90;;;;;;5075033;28;20207;-77
2022/04/21 09:29:49;;;;;;;8.73;7.93;;;15.90;70.70;;;;;;5074859;28;20215;-77
2022/04/21 09:32:17;;;;;;;9.23;8.05;;;16.10;69.90;;;;;;5074640;28;20270;-77
2022/04/21 09:34:48;;;;;;;8.38;7.50;;;16.40;68.40;;;;;;5074629;28;20653;-77
2022/04/21 09:37:19;;;;;;;7.55;6.75;;;16.70;63.50;;;;;;5074912;28;20201;-77
2022/04/21 09:39:51;;;;;;;7.55;6.85;;;16.20;64.40;;;;;;5074738;28;20559;-78
2022/04/21 09:42:26;;;;;;;9.98;7.20;;;15.90;65.40;;;;;;5074748;28;20291;-77
2022/04/21 09:47:36;;;;;;;11.82;7.15;;;16.20;63.90;;;;;;5079195;28;20200;-77
2022/04/21 09:50:12;;;;;;;7.75;7.05;;;16.70;60.90;;;;;;5077349;28;20205;-77
2022/04/21 09:52:46;;;;;;;8.57;7.32;;;16.60;62.90;;;;;;5074408;28;20327;-77
2022/04/21 09:55:26;;;;;;;7.95;6.93;;;17.00;60.70;;;;;;5074217;28;20227;-77
2022/04/21 09:58:05;;;;;;;10.02;7.18;;;17.20;59.60;;;;;;5074630;28;20203;-77
2022/04/21 10:00:32;;;;;;;7.97;6.63;;;17.60;56.80;;;;;;5074248;28;20204;-77
2022/04/21 10:03:01;;;;;;;6.90;6.30;;;17.30;55.60;;;;;;5074080;28;20193;-77
2022/04/21 10:05:30;;;;;;;6.75;5.90;;;17.70;53.60;;;;;;5074154;28;20541;-77
2022/04/21 10:07:58;;;;;;;7.40;5.60;;;18.00;53.20;;;;;;5074263;28;20201;-77
2022/04/21 10:10:26;;;;;;;6.57;5.90;;;18.70;50.70;;;;;;5074256;28;20193;-78
2022/04/21 10:12:56;;;;;;;6.85;5.72;;;19.20;48.60;;;;;;5073936;28;20205;-77
2022/04/21 10:15:23;;;;;;;7.30;6.45;;;18.90;46.60;;;;;;5074077;28;20255;-78
2022/04/21 10:17:49;;;;;;;7.30;6.53;;;18.60;46.50;;;;;;5073888;28;20279;-77
2022/04/21 10:20:16;;;;;;;7.72;6.88;;;18.90;47.20;;;;;;5073890;28;20193;-77
2022/04/21 10:22:45;;;;;;;7.68;7.05;;;19.60;44.40;;;;;;5073555;28;20232;-78
2022/04/21 10:25:12;;;;;;;7.30;6.65;;;19.20;45.00;;;;;;5074130;28;20372;-77
2022/04/21 10:27:42;;;;;;;7.85;6.25;;;19.40;44.50;;;;;;5073822;28;20216;-78
2022/04/21 10:30:15;;;;;;;6.88;5.85;;;19.60;43.10;;;;;;5073660;28;20250;-79
2022/04/21 10:32:50;;;;;;;6.90;6.18;;;19.70;41.30;;;;;;5072407;28;20648;-77
2022/04/21 10:35:48;;;;;;;17.15;7.97;;;19.70;39.70;;;;;;5072590;28;20257;-78
2022/04/21 10:38:19;;;;;;;8.25;7.13;;;20.80;39.70;;;;;;5070207;28;20240;-79
2022/04/21 10:41:03;;;;;;;7.60;6.90;;;20.80;38.40;;;;;;5073423;28;20201;-79
2022/04/21 10:44:03;;;;;;;7.78;6.20;;;20.60;38.90;;;;;;5073420;28;20694;-78
2022/04/21 10:46:33;;;;;;;8.30;5.82;;;21.00;38.90;;;;;;5073463;28;20204;-78
2022/04/21 10:49:00;;;;;;;7.13;6.32;;;21.60;36.00;;;;;;5073615;28;20205;-79
2022/04/21 10:58:42;;;;;;;6.32;5.20;;;22.60;34.20;;;;;;5073958;28;20246;-79
2022/04/21 11:01:11;;;;;;;6.50;5.55;;;23.50;30.00;;;;;;5071978;28;20200;-78
2022/04/21 11:03:40;;;;;;;6.95;4.55;;;23.60;29.10;;;;;;5073575;28;20220;-77
2022/04/21 11:06:08;;;;;;;5.32;4.78;;;23.50;27.60;;;;;;5073226;28;20197;-77
2022/04/21 11:08:35;;;;;;;4.43;4.03;;;23.60;27.30;;;;;;5073460;28;20576;-78
2022/04/21 11:11:02;;;;;;;4.78;4.38;;;24.90;26.50;;;;;;5073397;28;20193;-77
2022/04/21 11:13:42;;;;;;;5.30;4.80;;;24.90;24.90;;;;;;5073234;28;20193;-78
2022/04/21 11:16:09;;;;;;;4.18;3.72;;;25.90;23.60;;;;;;5076981;28;20192;-78
2022/04/21 11:18:36;;;;;;;3.95;3.65;;;25.70;21.70;;;;;;5078752;28;20223;-77
2022/04/21 11:21:23;;;;;;;5.68;3.80;;;25.90;20.90;;;;;;5080832;28;20258;-77
2022/04/21 11:24:03;;;;;;;5.05;4.07;;;26.60;20.40;;;;;;5079532;28;20244;-78
2022/04/21 11:26:30;;;;;;;5.15;4.50;;;25.60;20.30;;;;;;5079997;28;20292;-79
2022/04/21 11:29:03;;;;;;;6.38;4.07;;;24.10;21.50;;;;;;5078116;28;20193;-79
2022/04/21 11:31:29;;;;;;;4.03;3.72;;;22.30;23.20;;;;;;5075696;28;20197;-79
2022/04/21 11:34:01;;;;;;;5.57;4.18;;;21.30;24.00;;;;;;5075733;28;20217;-78
2022/04/21 11:36:37;;;;;;;9.90;4.13;;;21.30;24.60;;;;;;5076299;28;20551;-77
2022/04/21 11:39:08;;;;;;;4.50;4.10;;;20.40;24.80;;;;;;5076858;28;20572;-78
2022/04/21 11:41:41;;;;;;;5.38;3.78;;;19.70;25.70;;;;;;5080237;28;20224;-78
2022/04/21 11:44:07;;;;;;;4.68;4.25;;;19.10;26.80;;;;;;5079293;28;20274;-78
2022/04/21 11:46:38;;;;;;;8.00;4.57;;;19.00;27.20;;;;;;5077157;28;20197;-78
2022/04/21 11:49:05;;;;;;;5.20;4.47;;;18.90;27.80;;;;;;5077054;28;20227;-77
2022/04/21 11:51:32;;;;;;;7.25;4.95;;;19.00;28.10;;;;;;5076774;28;20201;-77
2022/04/21 11:54:05;;;;;;;6.00;4.72;;;19.10;28.00;;;;;;5076628;28;20213;-79
2022/04/21 11:56:32;;;;;;;4.32;3.92;;;19.10;27.50;;;;;;5076969;28;20197;-78
2022/04/21 11:59:05;;;;;;;4.10;3.70;;;19.30;27.30;;;;;;5076568;28;20656;-79
2022/04/21 12:07:02;;;;;;;10.35;4.03;;;20.80;25.50;;;;;;5076644;28;20253;-78
2022/04/21 12:09:33;;;;;;;4.55;3.95;;;20.60;25.50;;;;;;5076511;28;20193;-77
2022/04/21 12:12:02;;;;;;;4.05;3.75;;;20.40;25.90;;;;;;5076376;28;20555;-78
2022/04/21 12:14:31;;;;;;;7.18;4.00;;;20.10;26.00;;;;;;5076302;28;20220;-78
2022/04/21 12:16:58;;;;;;;5.45;3.67;;;20.00;26.50;;;;;;5076152;28;20197;-78
2022/04/21 12:19:32;;;;;;;4.03;3.10;;;19.80;26.10;;;;;;5076487;28;20250;-78
2022/04/21 12:22:00;;;;;;;3.53;3.22;;;19.30;25.90;;;;;;5075933;28;20197;-78
2022/04/21 12:24:31;;;;;;;3.85;3.55;;;19.30;25.90;;;;;;5076182;28;20201;-79
2022/04/21 12:26:58;;;;;;;3.63;3.20;;;19.10;26.30;;;;;;5076192;28;20734;-78
2022/04/21 12:29:27;;;;;;;4.22;3.00;;;19.10;26.10;;;;;;5075827;28;20243;-78
2022/04/21 12:31:55;;;;;;;4.72;2.95;;;19.30;25.90;;;;;;5076046;28;20236;-78
2022/04/21 12:34:26;;;;;;;3.30;3.00;;;19.50;25.50;;;;;;5075829;28;20274;-78
2022/04/21 12:36:54;;;;;;;3.45;2.80;;;19.60;25.20;;;;;;5075636;28;20717;-78
2022/04/21 12:39:21;;;;;;;3.30;2.83;;;19.80;25.10;;;;;;5075602;28;20197;-78
2022/04/21 12:41:51;;;;;;;3.53;2.90;;;19.20;25.10;;;;;;5075270;28;20537;-78
2022/04/21 12:44:19;;;;;;;5.97;2.97;;;18.90;25.90;;;;;;5075721;28;20691;-79
2022/04/21 12:46:57;;;;;;;3.63;3.03;;;18.80;26.10;;;;;;5076046;28;20250;-78
2022/04/21 12:49:40;;;;;;;3.78;2.85;;;18.80;26.10;;;;;;5075995;28;20287;-78
2022/04/21 12:52:07;;;;;;;1.70;1.60;;;19.10;26.30;;;;;;5075002;28;20239;-79
2022/04/21 12:54:34;;;;;;;1.55;1.45;;;19.20;23.40;;;;;;5075278;28;20221;-79
2022/04/21 12:57:02;;;;;;;2.60;2.15;;;18.90;22.90;;;;;;5075636;28;20205;-79
2022/04/21 12:59:28;;;;;;;3.22;2.22;;;18.60;24.60;;;;;;5074568;28;20258;-79
2022/04/21 13:01:55;;;;;;;5.15;2.25;;;18.30;25.10;;;;;;5075364;28;20197;-77
2022/04/21 13:04:22;;;;;;;7.80;2.97;;;18.10;25.80;;;;;;5075420;28;20197;-78
2022/04/21 13:06:48;;;;;;;4.30;2.90;;;17.60;26.50;;;;;;5075086;28;20283;-78
2022/04/21 13:09:15;;;;;;;6.68;2.88;;;17.70;26.90;;;;;;5075042;28;20263;-78
2022/04/21 13:11:42;;;;;;;2.53;1.92;;;17.70;26.90;;;;;;5075211;28;20201;-78
2022/04/21 13:14:10;;;;;;;2.50;2.20;;;18.00;26.30;;;;;;5075069;28;20220;-78
2022/04/21 13:16:37;;;;;;;4.32;2.50;;;18.10;25.40;;;;;;5075127;28;20247;-79
2022/04/21 13:19:04;;;;;;;2.75;2.03;;;18.50;26.30;;;;;;5074785;28;20296;-79
2022/04/21 13:24:14;;;;;;;5.30;2.50;;;19.10;24.40;;;;;;5074788;28;20239;-79
2022/04/21 13:26:41;;;;;;;3.92;2.40;;;18.70;24.90;;;;;;5074715;28;20193;-79
2022/04/21 13:29:09;;;;;;;3.38;2.63;;;18.10;25.80;;;;;;5074848;28;20669;-77
2022/04/21 13:34:20;;;;;;;4.40;2.55;;;17.10;27.10;;;;;;5074541;28;20270;-77
2022/04/21 13:36:47;;;;;;;3.22;2.92;;;17.00;27.70;;;;;;5074797;28;20254;-78
2022/04/21 13:39:15;;;;;;;7.25;3.30;;;16.70;28.20;;;;;;5074800;28;20564;-77
2022/04/21 13:41:42;;;;;;;7.63;3.22;;;16.50;29.60;;;;;;5074106;28;20644;-77
2022/04/21 13:44:10;;;;;;;4.85;2.63;;;16.30;30.10;;;;;;5074525;28;20197;-77
2022/04/21 13:46:37;;;;;;;3.40;3.10;;;16.20;30.40;;;;;;5074366;28;20254;-77